createdAt,value
2018-11-21T00:02:56.665Z,89.10
2018-11-21T00:05:38.057Z,90.40
2018-11-21T00:08:19.145Z,90.60
2018-11-21T00:11:00.884Z,91.10
2018-11-21T00:13:41.980Z,90.80
2018-11-21T00:19:08.162Z,90.70
2018-11-21T00:24:34.153Z,90.80
2018-11-21T00:30:00.405Z,90.90
2018-11-21T00:35:21.802Z,90.90
2018-11-21T00:38:03.441Z,91.00
2018-11-21T00:40:44.569Z,90.90
2018-11-21T00:43:25.608Z,91.10
2018-11-21T00:46:10.787Z,91.20
2018-11-21T00:51:36.107Z,91.10
2018-11-21T00:54:17.323Z,91.10
2018-11-21T00:59:50.065Z,91.40
2018-11-21T01:05:17.147Z,91.50
2018-11-21T01:07:58.203Z,91.60
2018-11-21T01:13:27.965Z,91.50
2018-11-21T01:18:57.000Z,91.70
2018-11-21T01:21:38.381Z,91.40
2018-11-21T01:24:19.466Z,91.40
2018-11-21T01:27:01.942Z,91.40
2018-11-21T01:29:45.461Z,91.00
2018-11-21T01:35:03.924Z,90.30
2018-11-21T01:40:32.401Z,90.70
2018-11-21T01:43:12.987Z,90.50
2018-11-21T01:45:55.194Z,90.60
2018-11-21T01:48:36.951Z,90.80
2018-11-21T01:51:21.327Z,90.80
2018-11-21T01:56:48.000Z,90.70
2018-11-21T02:02:13.739Z,90.90
2018-11-21T02:07:31.952Z,91.00
2018-11-21T02:10:20.116Z,90.80
2018-11-21T02:13:04.180Z,91.00
2018-11-21T02:15:33.399Z,90.90
2018-11-21T02:18:21.886Z,91.20
2018-11-21T02:21:09.928Z,91.20
2018-11-21T02:23:51.327Z,91.10
2018-11-21T02:29:02.338Z,91.30
2018-11-21T02:31:50.679Z,91.30
2018-11-21T02:40:03.380Z,91.70
2018-11-21T02:42:44.731Z,91.80
2018-11-21T02:45:27.088Z,91.90
2018-11-21T02:48:11.206Z,91.90
2018-11-21T02:53:36.687Z,92.10
2018-11-21T03:01:48.196Z,92.30
2018-11-21T03:04:29.436Z,92.30
2018-11-21T03:07:09.935Z,92.40
2018-11-21T03:09:53.404Z,92.40
2018-11-21T03:12:34.910Z,92.50
2018-11-21T03:15:03.748Z,92.50
2018-11-21T03:17:52.010Z,92.60
2018-11-21T03:20:40.264Z,92.60
2018-11-21T03:23:21.673Z,92.70
2018-11-21T03:26:03.579Z,92.60
2018-11-21T03:28:44.753Z,92.70
2018-11-21T03:34:10.532Z,92.80
2018-11-21T03:36:51.338Z,92.90
2018-11-21T03:39:35.573Z,92.90
2018-11-21T03:42:17.674Z,92.90
2018-11-21T03:44:59.435Z,93.00
2018-11-21T03:47:41.533Z,93.00
2018-11-21T03:50:22.424Z,93.10
2018-11-21T03:55:45.852Z,93.00
2018-11-21T03:58:28.956Z,93.00
2018-11-21T04:01:13.303Z,93.20
2018-11-21T04:06:42.587Z,93.10
2018-11-21T04:09:24.318Z,93.10
2018-11-21T04:11:54.553Z,93.20
2018-11-21T04:14:42.240Z,93.10
2018-11-21T04:17:26.199Z,93.10
2018-11-21T04:20:07.807Z,93.10
2018-11-21T04:22:48.764Z,93.10
2018-11-21T04:28:14.617Z,92.90
2018-11-21T04:30:56.018Z,92.90
2018-11-21T04:33:37.057Z,92.80
2018-11-21T04:36:19.622Z,92.70
2018-11-21T04:39:00.795Z,92.70
2018-11-21T04:44:27.278Z,92.60
2018-11-21T04:47:15.616Z,92.60
2018-11-21T04:49:57.613Z,92.50
2018-11-21T04:58:15.010Z,92.30
2018-11-21T05:00:55.024Z,92.40
2018-11-21T05:03:36.878Z,93.10
2018-11-21T05:09:02.934Z,92.10
2018-11-21T05:11:44.205Z,92.40
2018-11-21T05:14:28.158Z,92.40
2018-11-21T05:17:09.762Z,92.60
2018-11-21T05:19:51.189Z,92.70
2018-11-21T05:25:20.035Z,92.90
2018-11-21T05:28:01.521Z,92.90
2018-11-21T05:30:45.869Z,92.90
2018-11-21T05:33:28.688Z,93.10
2018-11-21T05:39:00.558Z,93.10
2018-11-21T05:44:33.149Z,93.10
2018-11-21T05:47:13.929Z,93.10
2018-11-21T05:49:55.397Z,93.10
2018-11-21T05:52:24.497Z,93.20
2018-11-21T05:55:13.607Z,93.20
2018-11-21T05:58:02.479Z,93.20
2018-11-21T06:03:25.917Z,93.30
2018-11-21T06:06:14.132Z,93.30
2018-11-21T06:08:56.483Z,93.80
2018-11-21T06:11:38.355Z,93.50
2018-11-21T06:14:18.503Z,93.60
2018-11-21T06:19:49.268Z,93.70
2018-11-21T06:25:15.507Z,93.70
2018-11-21T06:30:41.115Z,93.80
2018-11-21T06:35:54.460Z,93.90
2018-11-21T06:38:42.899Z,93.90
2018-11-21T06:41:27.617Z,94.00
2018-11-21T06:46:53.667Z,93.90
2018-11-21T06:55:04.477Z,93.90
2018-11-21T06:57:47.616Z,93.80
2018-11-21T07:00:31.639Z,93.90
2018-11-21T07:05:52.904Z,94.00
2018-11-21T07:08:36.743Z,93.90
2018-11-21T07:14:07.103Z,93.80
2018-11-21T07:16:31.118Z,93.90
2018-11-21T07:22:22.577Z,93.80
2018-11-21T07:25:04.399Z,93.90
2018-11-21T07:27:48.290Z,93.90
2018-11-21T07:33:18.350Z,93.80
2018-11-21T07:35:59.319Z,93.80
2018-11-21T07:38:40.500Z,93.70
2018-11-21T07:41:22.299Z,93.80
2018-11-21T07:46:48.952Z,93.80
2018-11-21T07:49:29.498Z,93.80
2018-11-21T07:52:10.499Z,93.60
2018-11-21T07:54:52.471Z,93.70
2018-11-21T07:57:37.100Z,93.70
2018-11-21T08:00:18.898Z,93.50
2018-11-21T08:03:00.363Z,93.50
2018-11-21T08:11:54.947Z,93.40
2018-11-21T08:20:11.062Z,93.40
2018-11-21T08:23:17.847Z,93.30
2018-11-21T08:26:02.194Z,93.10
2018-11-21T08:28:44.517Z,93.00
2018-11-21T08:34:11.512Z,92.90
2018-11-21T08:36:52.418Z,92.90
2018-11-21T08:39:33.093Z,92.70
2018-11-21T08:42:01.654Z,92.60
2018-11-21T08:44:50.428Z,92.90
2018-11-21T08:47:40.279Z,92.40
2018-11-21T08:50:21.095Z,92.20
2018-11-21T08:53:01.864Z,92.20
2018-11-21T08:55:42.026Z,91.90
2018-11-21T08:58:23.813Z,91.90
2018-11-21T09:03:49.674Z,91.70
2018-11-21T09:09:17.932Z,91.70
2018-11-21T09:12:02.860Z,91.50
2018-11-21T09:14:43.942Z,91.40
2018-11-21T09:17:26.610Z,91.40
2018-11-21T09:20:11.685Z,91.10
2018-11-21T09:22:53.831Z,90.90
2018-11-21T09:25:35.831Z,90.80
2018-11-21T09:28:17.886Z,90.20
2018-11-21T09:30:58.341Z,88.60
2018-11-21T09:36:29.101Z,87.90
2018-11-21T09:39:11.584Z,88.50
2018-11-21T09:41:52.905Z,88.90
2018-11-21T09:44:21.458Z,88.50
2018-11-21T09:47:09.972Z,87.80
2018-11-21T09:49:58.750Z,87.80
2018-11-21T09:52:44.788Z,88.20
2018-11-21T09:55:29.329Z,87.80
2018-11-21T10:01:02.639Z,87.60
2018-11-21T10:03:44.685Z,86.90
2018-11-21T10:06:28.780Z,86.70
2018-11-21T10:09:29.014Z,86.70
2018-11-21T10:12:10.184Z,86.30
2018-11-21T10:14:51.990Z,85.30
2018-11-21T10:17:33.726Z,85.30
2018-11-21T10:20:17.917Z,85.10
2018-11-21T10:23:00.445Z,84.50
2018-11-21T10:25:42.041Z,83.40
2018-11-21T10:28:23.983Z,83.70
2018-11-21T10:30:53.098Z,83.50
2018-11-21T10:33:41.752Z,84.10
2018-11-21T10:36:31.635Z,83.90
2018-11-21T10:39:12.503Z,83.30
2018-11-21T10:44:43.747Z,82.40
2018-11-21T10:50:10.462Z,81.00
2018-11-21T10:55:36.270Z,79.80
2018-11-21T10:58:21.832Z,79.00
2018-11-21T11:07:13.409Z,78.80
2018-11-21T11:10:20.589Z,78.20
2018-11-21T11:13:20.536Z,76.70
2018-11-21T11:16:24.290Z,76.50
2018-11-21T11:21:53.938Z,75.50
2018-11-21T11:24:45.208Z,74.80
2018-11-21T11:27:53.014Z,74.50
2018-11-21T11:33:42.583Z,71.70
2018-11-21T11:36:43.155Z,71.40
2018-11-21T11:42:14.171Z,66.40
2018-11-21T11:48:09.092Z,56.30
2018-11-21T11:51:09.908Z,53.10
2018-11-21T11:57:00.029Z,48.00
2018-11-21T12:03:05.681Z,45.60
2018-11-21T12:06:08.442Z,44.00
2018-11-21T12:09:12.136Z,43.90
2018-11-21T12:12:12.039Z,44.20
2018-11-21T12:15:15.178Z,44.00
2018-11-21T12:18:09.827Z,44.10
2018-11-21T12:21:11.802Z,42.90
2018-11-21T12:26:56.369Z,41.90
2018-11-21T12:32:43.704Z,43.60
2018-11-21T12:38:12.774Z,45.40
2018-11-21T12:41:15.756Z,45.20
2018-11-21T12:46:41.855Z,44.10
2018-11-21T12:49:44.642Z,43.40
2018-11-21T12:52:43.226Z,43.20
2018-11-21T13:04:25.452Z,50.50
2018-11-21T13:07:29.179Z,52.80
2018-11-21T13:10:09.869Z,54.50
2018-11-21T13:15:43.613Z,57.50
2018-11-21T13:24:52.066Z,59.50
2018-11-21T13:30:42.012Z,59.90
2018-11-21T13:36:30.885Z,60.00
2018-11-21T13:45:36.232Z,61.00
2018-11-21T13:51:37.482Z,59.90
2018-11-21T13:54:37.385Z,61.20
2018-11-21T13:57:18.791Z,60.50
2018-11-21T14:02:34.366Z,61.80
2018-11-21T14:11:21.839Z,61.90
2018-11-21T14:16:47.802Z,62.50
2018-11-21T14:22:17.564Z,59.70
2018-11-21T14:24:47.475Z,59.60
2018-11-21T14:27:16.852Z,59.50
2018-11-21T14:30:07.472Z,59.30
2018-11-21T14:32:37.120Z,59.50
2018-11-21T14:35:46.646Z,59.40
2018-11-21T14:38:28.788Z,58.80
2018-11-21T14:41:10.289Z,59.20
2018-11-21T14:46:36.115Z,59.70
2018-11-21T14:49:18.243Z,60.50
2018-11-21T14:54:46.025Z,60.30
2018-11-21T15:00:13.514Z,60.80
2018-11-21T15:05:57.670Z,62.30
2018-11-21T15:11:25.356Z,62.50
2018-11-21T15:14:06.054Z,62.80
2018-11-21T15:16:46.989Z,62.90
2018-11-21T15:19:27.978Z,63.50
2018-11-21T15:22:08.376Z,64.30
2018-11-21T15:24:52.933Z,65.00
2018-11-21T15:27:33.366Z,65.80
2018-11-21T15:30:16.353Z,66.80
2018-11-21T15:32:57.391Z,68.00
2018-11-21T15:38:34.266Z,69.90
2018-11-21T15:41:16.334Z,71.00
2018-11-21T15:44:01.773Z,71.40
2018-11-21T15:49:19.966Z,72.90
2018-11-21T15:52:08.668Z,74.10
2018-11-21T15:54:49.593Z,74.50
2018-11-21T15:57:30.807Z,74.90
2018-11-21T16:00:13.416Z,75.30
2018-11-21T16:02:44.760Z,76.00
2018-11-21T16:08:24.489Z,76.50
2018-11-21T16:11:13.798Z,76.70
2018-11-21T16:19:35.563Z,78.60
2018-11-21T16:22:18.371Z,79.20
2018-11-21T16:25:00.883Z,79.60
2018-11-21T16:27:43.825Z,79.90
2018-11-21T16:30:25.863Z,80.20
2018-11-21T16:38:37.704Z,79.80
2018-11-21T16:44:04.515Z,79.80
2018-11-21T16:46:46.885Z,79.80
2018-11-21T16:55:06.131Z,80.20
2018-11-21T17:00:35.890Z,80.10
2018-11-21T17:03:16.442Z,80.90
2018-11-21T17:05:57.999Z,80.60
2018-11-21T17:08:39.116Z,80.20
2018-11-21T17:11:07.889Z,80.30
2018-11-21T17:13:56.731Z,80.50
2018-11-21T17:16:45.414Z,80.70
2018-11-21T17:19:29.461Z,80.80
2018-11-21T17:24:55.488Z,80.80
2018-11-21T17:27:36.291Z,80.80
2018-11-21T17:30:21.459Z,80.80
2018-11-21T17:38:33.693Z,80.50
2018-11-21T17:41:12.943Z,80.60
2018-11-21T17:43:55.580Z,80.60
2018-11-21T17:49:21.183Z,80.90
2018-11-21T17:52:02.602Z,80.70
2018-11-21T17:54:31.161Z,80.70
2018-11-21T17:57:19.008Z,80.90
2018-11-21T18:00:00.456Z,81.30
2018-11-21T18:02:41.663Z,81.20
2018-11-21T18:05:23.934Z,81.60
2018-11-21T18:08:05.425Z,82.00
2018-11-21T18:10:47.108Z,82.40
2018-11-21T18:13:27.603Z,82.40
2018-11-21T18:16:08.724Z,82.40
2018-11-21T18:18:50.503Z,83.00
2018-11-21T18:21:32.604Z,83.50
2018-11-21T18:24:13.658Z,84.10
2018-11-21T18:26:55.669Z,84.70
2018-11-21T18:29:37.104Z,85.30
2018-11-21T18:32:21.728Z,85.60
2018-11-21T18:35:02.664Z,85.80
2018-11-21T18:37:44.524Z,86.40
2018-11-21T18:40:27.647Z,86.80
2018-11-21T18:43:08.752Z,87.10
2018-11-21T18:45:51.931Z,87.40
2018-11-21T18:48:33.425Z,87.80
2018-11-21T18:51:16.101Z,88.10
2018-11-21T18:53:58.058Z,88.10
2018-11-21T18:59:23.937Z,89.20
2018-11-21T19:02:05.002Z,89.50
2018-11-21T19:04:46.378Z,89.80
2018-11-21T19:10:18.333Z,90.40
2018-11-21T19:12:59.067Z,90.20
2018-11-21T19:15:40.174Z,90.20
2018-11-21T19:18:21.057Z,90.40
2018-11-21T19:21:02.060Z,90.50
2018-11-21T19:23:43.817Z,90.60
2018-11-21T19:26:25.371Z,90.70
2018-11-21T19:29:06.314Z,90.80
2018-11-21T19:31:47.672Z,90.90
2018-11-21T19:37:13.385Z,91.10
2018-11-21T19:39:55.991Z,91.20
2018-11-21T19:42:36.762Z,91.30
2018-11-21T19:45:18.048Z,91.40
2018-11-21T19:47:59.628Z,91.50
2018-11-21T19:50:40.232Z,91.60
2018-11-21T19:53:21.599Z,91.60
2018-11-21T19:55:52.607Z,91.80
2018-11-21T19:58:42.352Z,91.80
2018-11-21T20:01:24.599Z,91.80
2018-11-21T20:06:56.119Z,91.80
2018-11-21T20:09:36.875Z,91.80
2018-11-21T20:12:17.531Z,91.80
2018-11-21T20:15:00.377Z,91.80
2018-11-21T20:17:42.137Z,91.80
2018-11-21T20:20:23.392Z,91.60
2018-11-21T20:23:07.507Z,91.60
2018-11-21T20:25:48.755Z,91.60
2018-11-21T20:28:29.920Z,91.60
2018-11-21T20:31:11.063Z,91.50
2018-11-21T20:33:51.774Z,91.50
2018-11-21T20:36:32.365Z,91.50
2018-11-21T20:39:15.561Z,91.50
2018-11-21T20:41:58.263Z,91.50
2018-11-21T20:44:41.681Z,91.50
2018-11-21T20:50:34.227Z,91.70
2018-11-21T20:53:15.493Z,91.50
2018-11-21T20:55:57.095Z,91.50
2018-11-21T20:58:37.375Z,91.60
2018-11-21T21:01:06.692Z,91.50
2018-11-21T21:03:54.537Z,91.40
2018-11-21T21:06:35.129Z,91.40
2018-11-21T21:14:46.336Z,91.40
2018-11-21T21:17:28.008Z,91.40
2018-11-21T21:20:10.277Z,91.40
2018-11-21T21:25:32.421Z,91.50
2018-11-21T21:30:56.174Z,91.60
2018-11-21T21:33:42.509Z,91.60
2018-11-21T21:41:43.826Z,91.70
2018-11-21T21:44:31.694Z,91.60
2018-11-21T21:47:12.589Z,91.60
2018-11-21T21:52:48.863Z,91.70
2018-11-21T21:55:36.652Z,91.90
2018-11-21T21:58:18.809Z,92.10
2018-11-21T22:01:00.367Z,92.10
2018-11-21T22:03:40.719Z,92.20
2018-11-21T22:06:22.947Z,92.20
2018-11-21T22:09:04.835Z,92.30
2018-11-21T22:11:45.415Z,92.40
2018-11-21T22:14:27.749Z,92.40
2018-11-21T22:23:18.145Z,91.40
2018-11-21T22:26:00.519Z,92.10
2018-11-21T22:28:40.938Z,92.20
2018-11-21T22:31:22.011Z,92.20
2018-11-21T22:34:02.218Z,92.40
2018-11-21T22:36:44.006Z,92.80
2018-11-21T22:39:25.095Z,92.40
2018-11-21T22:44:50.824Z,92.40
2018-11-21T22:50:13.771Z,92.30
2018-11-21T22:52:54.662Z,92.10
2018-11-21T22:55:36.352Z,92.00
2018-11-21T22:58:18.091Z,91.90
2018-11-21T23:00:49.956Z,91.90
2018-11-21T23:03:38.328Z,91.80
2018-11-21T23:06:26.970Z,91.80
2018-11-21T23:09:07.778Z,91.90
2018-11-21T23:11:36.756Z,91.80
2018-11-21T23:14:24.621Z,91.80
2018-11-21T23:17:06.281Z,91.80
2018-11-21T23:22:14.816Z,91.90
2018-11-21T23:25:22.608Z,91.90
2018-11-21T23:28:04.706Z,91.90
2018-11-21T23:30:46.088Z,91.90
2018-11-21T23:33:26.903Z,91.90
2018-11-21T23:36:08.968Z,91.90
2018-11-21T23:38:53.195Z,92.10
2018-11-21T23:41:33.501Z,92.20
2018-11-21T23:44:02.339Z,92.30
2018-11-21T23:46:50.623Z,92.40
2018-11-21T23:49:35.016Z,92.50
2018-11-21T23:52:16.062Z,92.60
2018-11-21T23:54:58.847Z,92.80
2018-11-21T23:57:39.720Z,92.90
